Time;durP1;ratioP1;P1;durP2;ratioP2;P2;SDS_P1;SDS_P2;PMS_P1;PMS_P2;Temp;Humidity;BMP_temperature;BMP_pressure;BME280_temperature;BME280_humidity;BME280_pressure;Samples;Min_cycle;Max_cycle;Signal;HPM_P1;HPM_P2
2022/04/01 00:00:29;;;;;;;3.60;2.60;;;;;;;1.26;100.00;100201.56;5041396;28;20067;-47
2022/04/01 00:02:57;;;;;;;5.85;2.55;;;;;;;1.14;100.00;100201.47;5058225;28;20040;-47
2022/04/01 00:05:25;;;;;;;3.88;2.88;;;;;;;1.16;100.00;100201.28;5059188;28;20140;-47
2022/04/01 00:07:52;;;;;;;3.30;2.55;;;;;;;1.27;100.00;100212.09;5059633;28;20526;-48
2022/04/01 00:10:20;;;;;;;5.35;2.70;;;;;;;1.22;100.00;100214.59;5058300;28;20040;-50
2022/04/01 00:12:48;;;;;;;3.63;2.30;;;;;;;1.08;100.00;100218.44;5059118;28;20106;-48
2022/04/01 00:15:16;;;;;;;4.55;2.30;;;;;;;1.14;100.00;100222.94;5038788;28;20053;-47
2022/04/01 00:17:44;;;;;;;3.40;2.50;;;;;;;1.11;100.00;100225.22;5035744;28;20419;-48
2022/04/01 00:20:18;;;;;;;5.30;2.60;;;;;;;1.06;100.00;100226.72;5054588;28;20476;-44
2022/04/01 00:22:46;;;;;;;4.03;2.35;;;;;;;1.08;100.00;100229.19;5054503;28;20123;-47
2022/04/01 00:25:15;;;;;;;4.70;2.80;;;;;;;1.06;100.00;100225.91;5046456;28;20057;-46
2022/04/01 00:27:42;;;;;;;3.88;2.45;;;;;;;1.05;100.00;100235.00;5054629;28;20039;-46
2022/04/01 00:30:10;;;;;;;3.40;2.67;;;;;;;0.98;100.00;100234.22;5038240;28;20091;-48
2022/04/01 00:32:38;;;;;;;4.50;2.65;;;;;;;1.00;100.00;100226.78;5054663;28;20043;-47
2022/04/01 00:35:06;;;;;;;3.97;2.47;;;;;;;0.96;100.00;100230.94;5038927;28;20566;-46
2022/04/01 00:37:34;;;;;;;3.85;2.67;;;;;;;0.90;100.00;100229.97;5046158;28;20063;-45
2022/04/01 00:40:02;;;;;;;4.43;2.47;;;;;;;0.90;100.00;100237.19;5055464;28;20514;-48
2022/04/01 00:42:30;;;;;;;4.40;2.50;;;;;;;0.80;100.00;100227.78;5053235;28;20048;-49
2022/04/01 00:44:58;;;;;;;4.57;2.63;;;;;;;0.80;100.00;100241.19;5045785;28;20056;-49
2022/04/01 00:47:26;;;;;;;3.45;2.40;;;;;;;0.70;100.00;100235.50;5038159;28;20495;-47
2022/04/01 00:49:55;;;;;;;2.53;2.10;;;;;;;0.77;100.00;100241.63;5053692;28;20053;-47
2022/04/01 00:52:23;;;;;;;3.20;2.60;;;;;;;0.72;100.00;100243.28;5055216;28;20071;-47
2022/04/01 00:54:52;;;;;;;4.97;2.50;;;;;;;0.63;100.00;100248.13;5054224;28;20045;-45
2022/04/01 00:57:20;;;;;;;6.43;2.78;;;;;;;0.73;100.00;100232.38;5054080;28;20155;-47
2022/04/01 00:59:50;;;;;;;2.65;2.40;;;;;;;0.69;100.00;100257.97;5037546;28;20033;-45
2022/04/01 01:02:18;;;;;;;3.33;2.08;;;;;;;0.66;100.00;100239.63;5054920;28;20076;-48
2022/04/01 01:04:46;;;;;;;4.43;2.38;;;;;;;0.55;100.00;100243.00;5052151;28;20095;-46
2022/04/01 01:07:15;;;;;;;3.83;2.80;;;;;;;0.62;100.00;100247.28;5052436;28;20049;-46
2022/04/01 01:09:43;;;;;;;3.67;2.75;;;;;;;0.74;100.00;100252.75;5053761;28;20556;-47
2022/04/01 01:12:11;;;;;;;2.50;2.30;;;;;;;0.72;100.00;100235.25;5054301;28;20045;-46
2022/04/01 01:14:41;;;;;;;5.07;2.40;;;;;;;0.77;100.00;100249.66;5053810;28;20068;-48
2022/04/01 01:17:12;;;;;;;4.90;2.50;;;;;;;0.73;100.00;100248.44;5053785;28;20056;-48
2022/04/01 01:19:40;;;;;;;5.07;2.90;;;;;;;0.77;100.00;100251.50;5035568;28;20436;-46
2022/04/01 01:22:08;;;;;;;3.08;2.53;;;;;;;0.77;100.00;100255.03;5052631;28;20041;-49
2022/04/01 01:24:39;;;;;;;3.10;2.58;;;;;;;0.77;100.00;100256.88;5049844;28;20076;-46
2022/04/01 01:27:08;;;;;;;4.10;2.70;;;;;;;0.87;100.00;100253.69;5002624;28;20503;-46
2022/04/01 01:29:38;;;;;;;3.63;2.20;;;;;;;0.80;100.00;100243.84;5054610;28;20059;-46
2022/04/01 01:32:09;;;;;;;4.18;2.80;;;;;;;0.76;100.00;100245.31;5051649;28;20499;-47
2022/04/01 01:34:39;;;;;;;3.47;2.65;;;;;;;0.74;100.00;100249.25;5051891;28;20095;-46
2022/04/01 01:37:11;;;;;;;3.38;2.30;;;;;;;0.73;100.00;100245.78;5053130;28;20484;-47
2022/04/01 01:39:40;;;;;;;4.20;2.35;;;;;;;0.66;100.00;100249.53;5041617;28;20520;-43
2022/04/01 01:42:10;;;;;;;3.10;2.40;;;;;;;0.80;100.00;100246.53;5033340;28;20128;-43
2022/04/01 01:44:38;;;;;;;4.57;2.60;;;;;;;0.85;100.00;100254.75;5043268;28;20463;-43
2022/04/01 01:47:07;;;;;;;3.05;2.50;;;;;;;0.77;100.00;100252.34;5052318;28;20063;-44
2022/04/01 01:49:35;;;;;;;3.05;2.38;;;;;;;0.74;100.00;100257.31;5052944;28;20106;-42
2022/04/01 01:54:50;;;;;;;4.80;2.75;;;;;;;0.61;100.00;100266.28;5035216;28;20408;-43
2022/04/01 01:57:24;;;;;;;4.13;2.53;;;;;;;0.66;100.00;100263.75;5043625;28;20127;-46
2022/04/01 01:59:55;;;;;;;2.72;2.10;;;;;;;0.69;100.00;100270.53;5052870;28;20403;-48
2022/04/01 02:02:23;;;;;;;4.25;2.08;;;;;;;0.68;100.00;100266.25;5052850;28;20499;-46
2022/04/01 02:04:50;;;;;;;2.40;2.22;;;;;;;0.62;100.00;100274.09;5048908;28;20055;-46
2022/04/01 02:07:20;;;;;;;2.30;2.10;;;;;;;0.66;100.00;100274.47;5041157;28;20141;-47
2022/04/01 02:09:48;;;;;;;2.50;2.30;;;;;;;0.74;100.00;100276.91;5035064;28;20118;-46
2022/04/01 02:12:18;;;;;;;3.25;2.40;;;;;;;0.64;100.00;100271.19;5032868;28;20447;-46
2022/04/01 02:14:46;;;;;;;2.97;2.40;;;;;;;0.67;100.00;100281.47;5033955;28;20045;-46
2022/04/01 02:17:14;;;;;;;3.30;2.55;;;;;;;0.69;100.00;100276.72;5032746;28;20056;-45
2022/04/01 02:19:42;;;;;;;2.50;2.30;;;;;;;0.67;100.00;100289.53;5032316;28;20108;-46
2022/04/01 02:22:10;;;;;;;4.90;2.20;;;;;;;0.67;100.00;100286.84;5033601;28;20073;-46
2022/04/01 02:24:39;;;;;;;4.53;2.10;;;;;;;0.66;100.00;100293.25;5049049;28;20133;-48
2022/04/01 02:27:09;;;;;;;2.63;2.03;;;;;;;0.66;100.00;100285.22;5052537;28;20041;-45
2022/04/01 02:29:37;;;;;;;2.60;2.08;;;;;;;0.71;100.00;100296.09;5036846;28;20132;-46
2022/04/01 02:32:26;;;;;;;3.30;2.35;;;;;;;0.70;100.00;100299.84;5050886;28;20033;-44
2022/04/01 02:35:04;;;;;;;2.97;2.50;;;;;;;0.61;100.00;100298.44;5035196;28;20132;-49
2022/04/01 02:37:35;;;;;;;4.53;2.83;;;;;;;0.50;100.00;100304.47;5052632;28;20402;-49
2022/04/01 02:40:04;;;;;;;2.47;2.20;;;;;;;0.49;100.00;100300.16;5052637;28;20119;-48
2022/04/01 02:42:33;;;;;;;2.65;2.45;;;;;;;0.49;100.00;100310.88;5050694;28;20033;-46
2022/04/01 02:45:01;;;;;;;2.85;2.55;;;;;;;0.48;100.00;100315.44;5049930;28;20056;-48
2022/04/01 02:47:29;;;;;;;3.42;2.70;;;;;;;0.52;100.00;100300.53;5048719;28;20037;-46
2022/04/01 02:49:57;;;;;;;3.40;2.60;;;;;;;0.54;100.00;100313.75;5051820;28;20041;-47
2022/04/01 02:52:25;;;;;;;4.28;2.72;;;;;;;0.61;100.00;100318.03;5047034;28;20045;-46
2022/04/01 02:54:52;;;;;;;2.78;2.58;;;;;;;0.68;100.00;100309.13;5032464;28;20115;-48
2022/04/01 02:57:20;;;;;;;2.53;2.33;;;;;;;0.65;100.00;100315.75;5031603;28;20042;-46
2022/04/01 02:59:49;;;;;;;3.67;2.88;;;;;;;0.64;100.00;100317.59;5032342;28;20045;-47
2022/04/01 03:02:17;;;;;;;4.05;2.72;;;;;;;0.59;100.00;100319.28;5035020;28;20038;-46
2022/04/01 03:04:45;;;;;;;2.50;2.30;;;;;;;0.58;100.00;100325.69;5052132;28;20049;-46
2022/04/01 03:07:13;;;;;;;3.38;2.47;;;;;;;0.63;100.00;100324.00;5052143;28;20057;-46
2022/04/01 03:09:42;;;;;;;4.68;3.10;;;;;;;0.49;100.00;100333.13;5052093;28;20396;-47
2022/04/01 03:12:19;;;;;;;3.95;2.60;;;;;;;0.45;100.00;100329.22;5052075;28;20045;-48
2022/04/01 03:14:51;;;;;;;3.63;2.40;;;;;;;0.52;100.00;100345.28;5051476;28;20068;-47
2022/04/01 03:17:37;;;;;;;4.57;2.38;;;;;;;0.59;100.00;100349.56;5053215;28;20041;-45
2022/04/01 03:20:22;;;;;;;3.90;2.80;;;;;;;0.60;100.00;100339.66;5051335;28;20041;-49
2022/04/01 03:22:51;;;;;;;3.28;2.50;;;;;;;0.55;100.00;100351.03;5043617;28;20068;-48
2022/04/01 03:25:23;;;;;;;2.67;2.28;;;;;;;0.49;100.00;100353.78;5031932;28;20126;-45
2022/04/01 03:28:11;;;;;;;2.90;2.60;;;;;;;0.53;100.00;100366.53;5032546;28;20519;-48
2022/04/01 03:30:40;;;;;;;1.98;1.88;;;;;;;0.54;100.00;100364.66;5032106;28;20041;-46
2022/04/01 03:33:08;;;;;;;5.05;2.72;;;;;;;0.51;100.00;100367.78;5038513;28;20045;-47
2022/04/01 03:35:37;;;;;;;3.47;2.45;;;;;;;0.48;100.00;100362.81;5051712;28;20452;-47
2022/04/01 03:38:10;;;;;;;2.45;2.25;;;;;;;0.38;100.00;100357.91;5050216;28;20079;-45
2022/04/01 03:40:42;;;;;;;3.80;2.58;;;;;;;0.45;100.00;100368.63;5051532;28;20132;-46
2022/04/01 03:43:10;;;;;;;3.78;2.92;;;;;;;0.54;100.00;100367.34;5031129;28;20050;-46
2022/04/01 03:45:38;;;;;;;2.88;2.58;;;;;;;0.55;100.00;100371.66;5031854;28;20050;-46
2022/04/01 03:48:36;;;;;;;4.63;2.47;;;;;;;0.48;100.00;100373.53;5015871;28;20046;-48
2022/04/01 03:51:04;;;;;;;2.67;2.47;;;;;;;0.51;100.00;100378.50;5019445;28;20053;-44
2022/04/01 03:53:41;;;;;;;5.32;2.72;;;;;;;0.50;100.00;100376.84;5042418;28;20050;-43
2022/04/01 03:56:16;;;;;;;4.57;2.85;;;;;;;0.49;100.00;100393.97;5035678;28;20049;-43
2022/04/01 03:59:08;;;;;;;2.92;2.20;;;;;;;0.48;100.00;100381.59;5035501;28;20566;-49
2022/04/01 04:02:02;;;;;;;3.65;2.55;;;;;;;0.44;100.00;100393.78;5026827;28;20042;-45
2022/04/01 04:04:30;;;;;;;3.72;2.40;;;;;;;0.36;100.00;100390.31;5026307;28;20407;-43
2022/04/01 04:06:58;;;;;;;3.38;2.30;;;;;;;0.40;100.00;100398.72;5033855;28;20571;-44
2022/04/01 04:09:26;;;;;;;4.03;2.60;;;;;;;0.31;100.00;100392.78;5033907;28;20506;-43
2022/04/01 04:11:54;;;;;;;5.32;2.55;;;;;;;0.25;100.00;100407.03;5034732;28;20128;-43
2022/04/01 04:14:27;;;;;;;2.63;2.20;;;;;;;0.30;100.00;100417.94;5018052;28;20037;-46
2022/04/01 04:16:57;;;;;;;4.50;2.90;;;;;;;0.19;100.00;100416.75;5036041;28;20108;-48
2022/04/01 04:19:47;;;;;;;1.70;1.60;;;;;;;0.21;100.00;100414.66;5018353;28;20571;-48
2022/04/01 04:22:17;;;;;;;4.10;2.90;;;;;;;0.31;100.00;100421.44;5035690;28;20052;-48
2022/04/01 04:25:04;;;;;;;3.05;2.40;;;;;;;0.47;100.00;100415.63;5034747;28;20073;-47
2022/04/01 04:27:36;;;;;;;3.63;2.70;;;;;;;0.37;100.00;100432.13;5019399;28;20132;-48
2022/04/01 04:30:09;;;;;;;;;;;;;;;0.30;100.00;100431.34;5032414;28;20041;-44
2022/04/01 04:32:54;;;;;;;3.63;2.58;;;;;;;0.34;100.00;100437.94;5044835;28;19921;-47
2022/04/01 04:35:26;;;;;;;3.03;2.70;;;;;;;0.29;100.00;100440.41;5054350;28;20491;-48
2022/04/01 04:37:57;;;;;;;4.57;2.80;;;;;;;0.23;100.00;100457.31;5034544;28;20046;-48
2022/04/01 04:40:25;;;;;;;3.55;2.60;;;;;;;0.23;100.00;100451.13;5018351;28;20133;-50
2022/04/01 04:43:12;;;;;;;4.95;3.13;;;;;;;0.32;100.00;100453.38;5021619;28;20037;-47
2022/04/01 04:45:40;;;;;;;3.13;2.50;;;;;;;0.29;100.00;100453.81;5034580;28;20054;-47
2022/04/01 04:48:10;;;;;;;5.18;2.97;;;;;;;0.29;100.00;100456.50;5018177;28;20041;-47
2022/04/01 04:50:38;;;;;;;3.70;2.67;;;;;;;0.31;100.00;100459.75;5017634;28;20045;-46
2022/04/01 04:53:06;;;;;;;3.15;2.47;;;;;;;0.35;100.00;100466.34;5035291;28;20470;-46
2022/04/01 04:55:34;;;;;;;4.40;2.80;;;;;;;0.31;100.00;100469.66;5053140;28;20098;-47
2022/04/01 04:58:09;;;;;;;4.95;2.10;;;;;;;0.29;100.00;100472.56;5053999;28;20071;-44
2022/04/01 05:00:54;;;;;;;3.22;2.47;;;;;;;0.21;100.00;100468.22;5053027;28;20403;-45
2022/04/01 05:03:47;;;;;;;3.55;2.65;;;;;;;0.30;100.00;100484.91;5054181;28;20037;-46
2022/04/01 05:06:18;;;;;;;3.15;2.60;;;;;;;0.27;100.00;100480.00;5036872;28;20061;-46
2022/04/01 05:09:16;;;;;;;4.03;2.42;;;;;;;0.23;100.00;100494.00;5054190;28;20041;-46
2022/04/01 05:12:03;;;;;;;4.95;3.10;;;;;;;0.30;100.00;100505.53;5030907;28;20061;-47
2022/04/01 05:14:56;;;;;;;5.88;2.90;;;;;;;0.31;100.00;100505.31;5034482;28;20073;-45
2022/04/01 05:17:36;;;;;;;3.90;2.80;;;;;;;0.26;100.00;100499.75;5017600;28;20399;-49
2022/04/01 05:20:17;;;;;;;4.53;2.75;;;;;;;0.30;100.00;100526.97;5017651;28;20049;-48
2022/04/01 05:23:01;;;;;;;3.28;2.70;;;;;;;0.12;100.00;100515.03;5050419;28;20127;-48
2022/04/01 05:25:39;;;;;;;5.20;2.90;;;;;;;0.05;100.00;100518.72;5036050;28;20048;-49
2022/04/01 05:28:23;;;;;;;3.95;2.60;;;;;;;0.17;100.00;100533.19;5033673;28;20046;-49
2022/04/01 05:31:34;;;;;;;;;;;;;;;0.29;100.00;100522.63;5034725;28;20053;-47
2022/04/01 05:34:13;;;;;;;7.07;3.15;;;;;;;0.17;100.00;100528.63;5032372;28;20452;-48
2022/04/01 05:36:44;;;;;;;4.30;3.13;;;;;;;0.25;100.00;100532.97;4999819;28;20047;-46
2022/04/01 05:39:13;;;;;;;5.63;3.03;;;;;;;0.26;100.00;100542.63;4321638;28;10000818;-46
2022/04/01 05:41:47;;;;;;;5.13;3.10;;;;;;;0.18;100.00;100540.16;5020185;28;20132;-47
2022/04/01 05:44:15;;;;;;;6.88;3.30;;;;;;;0.15;100.00;100545.94;5015057;28;20045;-47
2022/04/01 05:46:45;;;;;;;4.93;3.00;;;;;;;0.12;100.00;100543.66;5030302;28;20455;-48
2022/04/01 05:49:18;;;;;;;5.93;3.20;;;;;;;0.14;100.00;100549.63;5030102;28;20551;-47
2022/04/01 05:51:46;;;;;;;5.30;3.03;;;;;;;0.13;100.00;100548.81;5023939;28;20128;-48
2022/04/01 05:54:15;;;;;;;4.40;3.00;;;;;;;0.15;100.00;100565.53;5034887;28;20171;-50
2022/04/01 05:56:48;;;;;;;4.43;2.78;;;;;;;0.07;100.00;100564.88;5029773;28;20568;-48
2022/04/01 05:59:19;;;;;;;8.82;2.90;;;;;;;0.09;100.00;100573.53;5013995;28;20599;-47
2022/04/01 06:01:49;;;;;;;4.78;3.08;;;;;;;0.03;100.00;100572.53;5026027;28;20048;-48
2022/04/01 06:04:38;;;;;;;6.57;4.10;;;;;;;-0.01;100.00;100580.13;5031430;28;20073;-51
2022/04/01 06:07:27;;;;;;;8.10;3.00;;;;;;;0.02;100.00;100584.25;5029320;28;20479;-49
2022/04/01 06:09:59;;;;;;;4.03;2.58;;;;;;;0.07;100.00;100587.13;5030707;28;20048;-49
2022/04/01 06:13:29;;;;;;;6.47;3.10;;;;;;;0.11;100.00;100598.28;5040620;28;20051;-49
2022/04/01 06:16:53;;;;;;;3.65;2.83;;;;;;;0.15;100.00;100600.34;5034752;28;20196;-49
2022/04/01 06:19:27;;;;;;;4.93;3.00;;;;;;;0.10;100.00;100604.69;5034238;28;20528;-48
2022/04/01 06:22:05;;;;;;;4.43;3.00;;;;;;;0.09;100.00;100611.88;5035208;28;20068;-48
2022/04/01 06:25:02;;;;;;;9.82;2.63;;;;;;;0.14;100.00;100614.75;5032991;28;20049;-47
2022/04/01 06:27:40;;;;;;;6.55;3.28;;;;;;;0.04;100.00;100614.34;5032379;28;20084;-47
2022/04/01 06:30:19;;;;;;;7.60;3.03;;;;;;;0.11;100.00;100622.38;5035395;28;20041;-55
2022/04/01 06:33:03;;;;;;;9.18;3.05;;;;;;;0.08;100.00;100631.66;5043957;28;20408;-47
2022/04/01 06:36:01;;;;;;;4.20;2.60;;;;;;;0.33;100.00;100634.56;5051339;28;20094;-45
2022/04/01 06:38:41;;;;;;;5.80;3.10;;;;;;;0.58;98.72;100626.75;5036063;28;20044;-47
2022/04/01 06:41:19;;;;;;;6.72;3.90;;;;;;;0.27;99.03;100632.72;5012541;28;20060;-48
2022/04/01 06:44:10;;;;;;;5.45;3.47;;;;;;;0.09;99.76;100643.19;5035551;28;20134;-48
2022/04/01 06:46:56;;;;;;;5.82;2.80;;;;;;;0.23;100.00;100644.88;5033610;28;20131;-48
2022/04/01 06:49:25;;;;;;;4.13;2.50;;;;;;;0.12;99.31;100648.13;5031541;28;20052;-47
2022/04/01 06:52:28;;;;;;;5.93;3.17;;;;;;;0.07;98.90;100656.78;5032918;28;20160;-47
2022/04/01 06:55:14;;;;;;;6.18;3.33;;;;;;;0.05;99.57;100652.66;5039543;28;20589;-50
2022/04/01 06:57:59;;;;;;;5.00;2.95;;;;;;;0.18;99.29;100674.13;5051778;28;20095;-47
2022/04/01 07:00:30;;;;;;;5.63;3.17;;;;;;;0.16;99.55;100670.81;5051541;28;20071;-49
2022/04/01 07:02:57;;;;;;;4.47;3.38;;;;;;;0.12;99.31;100682.97;5052817;28;20051;-47
2022/04/01 07:05:26;;;;;;;6.95;3.13;;;;;;;0.10;99.71;100683.19;5034005;28;20045;-47
2022/04/01 07:07:53;;;;;;;6.13;3.53;;;;;;;0.07;100.00;100677.38;5033170;28;20050;-48
2022/04/01 07:10:21;;;;;;;9.70;3.53;;;;;;;0.06;100.00;100681.94;5040792;28;20525;-48
2022/04/01 07:12:50;;;;;;;10.90;3.47;;;;;;;0.10;99.00;100685.03;5052868;28;20049;-46
2022/04/01 07:15:17;;;;;;;7.03;3.28;;;;;;;0.09;98.87;100686.06;5053065;28;20049;-48
2022/04/01 07:17:45;;;;;;;5.75;3.20;;;;;;;0.16;99.41;100689.56;5052964;28;20041;-47
2022/04/01 07:20:13;;;;;;;7.03;3.28;;;;;;;0.27;99.75;100683.63;5048074;28;20038;-48
2022/04/01 07:22:51;;;;;;;4.63;3.08;;;;;;;0.24;99.09;100693.91;5033659;28;20120;-46
2022/04/01 07:25:23;;;;;;;6.65;2.90;;;;;;;0.33;100.00;100693.50;5037106;28;20159;-48
2022/04/01 07:27:52;;;;;;;4.72;2.80;;;;;;;0.35;99.39;100704.84;5037020;28;20067;-45
2022/04/01 07:30:20;;;;;;;4.80;2.95;;;;;;;0.30;98.90;100688.56;5046235;28;20037;-49
2022/04/01 07:32:55;;;;;;;8.15;3.38;;;;;;;0.27;99.33;100688.97;5055354;28;20125;-49
2022/04/01 07:35:23;;;;;;;4.90;3.05;;;;;;;0.23;99.25;100701.13;5056757;28;20033;-45
2022/04/01 07:37:51;;;;;;;8.75;3.28;;;;;;;0.24;99.34;100704.63;5056661;28;20452;-44
2022/04/01 07:40:22;;;;;;;7.82;3.15;;;;;;;0.26;99.95;100707.94;5054016;28;20044;-46
2022/04/01 07:42:51;;;;;;;5.50;3.10;;;;;;;0.18;98.81;100722.34;5055408;28;20466;-46
2022/04/01 07:45:19;;;;;;;6.82;3.45;;;;;;;0.15;99.48;100718.22;5037784;28;20484;-46
2022/04/01 07:47:48;;;;;;;6.80;3.00;;;;;;;0.13;98.66;100725.63;5036281;28;20076;-47
2022/04/01 07:50:17;;;;;;;5.43;2.95;;;;;;;0.09;99.44;100723.56;5044910;28;20061;-46
2022/04/01 07:52:45;;;;;;;7.50;3.83;;;;;;;0.17;99.87;100731.44;5054410;28;20495;-49
2022/04/01 07:55:14;;;;;;;6.95;3.40;;;;;;;0.20;98.89;100737.19;5054873;28;20087;-48
2022/04/01 07:57:47;;;;;;;7.30;3.38;;;;;;;0.15;98.90;100741.50;5042248;28;20136;-50
2022/04/01 08:00:21;;;;;;;5.35;3.00;;;;;;;0.13;99.34;100749.75;5037513;28;20047;-50
2022/04/01 08:02:49;;;;;;;6.82;3.40;;;;;;;0.11;99.26;100743.75;5036390;28;20047;-48
2022/04/01 08:05:17;;;;;;;6.85;3.15;;;;;;;0.15;99.20;100739.66;5034986;28;20132;-49
2022/04/01 08:07:46;;;;;;;5.35;2.97;;;;;;;0.09;99.70;100739.63;5039180;28;20480;-49
2022/04/01 08:10:14;;;;;;;10.20;3.20;;;;;;;0.14;99.62;100734.47;5049224;28;20041;-48
2022/04/01 08:12:43;;;;;;;5.35;3.10;;;;;;;0.13;99.60;100751.59;5056073;28;20041;-48
2022/04/01 08:15:12;;;;;;;4.90;3.28;;;;;;;0.12;99.95;100752.59;5054807;28;20064;-48
2022/04/01 08:17:40;;;;;;;11.10;3.28;;;;;;;0.19;99.40;100754.31;5048977;28;20052;-48
2022/04/01 08:20:10;;;;;;;7.38;2.97;;;;;;;0.22;97.52;100758.44;5046429;28;20468;-48
2022/04/01 08:22:38;;;;;;;6.80;3.38;;;;;;;0.21;98.28;100779.03;5035585;28;20141;-49
2022/04/01 08:25:07;;;;;;;5.43;2.83;;;;;;;0.32;97.76;100774.94;5035751;28;20046;-48
2022/04/01 08:27:35;;;;;;;7.50;2.90;;;;;;;0.33;97.48;100768.53;5034829;28;20055;-48
2022/04/01 08:30:02;;;;;;;5.80;2.90;;;;;;;0.19;95.22;100777.56;5049580;28;20041;-51
2022/04/01 08:32:30;;;;;;;9.45;2.70;;;;;;;0.20;95.32;100784.59;5055767;28;20041;-44
2022/04/01 08:34:58;;;;;;;5.88;3.05;;;;;;;0.21;96.20;100787.06;5054852;28;20462;-50
2022/04/01 08:37:26;;;;;;;5.93;2.80;;;;;;;0.28;96.02;100783.59;5038049;28;20041;-48
2022/04/01 08:39:53;;;;;;;4.90;2.75;;;;;;;0.27;96.26;100785.44;5053518;28;20509;-46
2022/04/01 08:42:22;;;;;;;5.78;2.95;;;;;;;0.26;95.78;100791.81;5055387;28;20037;-47
2022/04/01 08:44:51;;;;;;;6.97;2.90;;;;;;;0.22;95.25;100803.97;5055617;28;20041;-47
2022/04/01 08:47:19;;;;;;;6.65;2.78;;;;;;;0.30;95.89;100806.47;5056089;28;20053;-45
2022/04/01 08:49:47;;;;;;;5.25;3.05;;;;;;;0.33;95.95;100806.06;5041274;28;20217;-46
2022/04/01 08:52:15;;;;;;;5.47;2.88;;;;;;;0.35;97.09;100813.91;5055350;28;20129;-45
2022/04/01 08:54:42;;;;;;;4.18;2.72;;;;;;;0.32;97.96;100817.81;5054381;28;20045;-45
2022/04/01 08:57:10;;;;;;;6.07;2.60;;;;;;;0.35;98.22;100822.78;5055272;28;20033;-48
2022/04/01 08:59:38;;;;;;;5.55;2.95;;;;;;;0.31;97.40;100828.72;5053531;28;20566;-44
2022/04/01 09:02:10;;;;;;;6.70;3.38;;;;;;;0.34;98.16;100839.91;5055219;28;20049;-46
2022/04/01 09:04:38;;;;;;;8.27;3.00;;;;;;;0.44;96.25;100838.69;5050836;28;20117;-49
2022/04/01 09:07:13;;;;;;;5.53;3.10;;;;;;;0.48;96.68;100839.94;5051153;28;20061;-48
2022/04/01 09:09:41;;;;;;;4.80;2.70;;;;;;;0.41;97.02;100840.75;5050630;28;20033;-47
2022/04/01 09:12:14;;;;;;;7.53;3.15;;;;;;;0.46;96.81;100837.47;5055722;28;20495;-43
2022/04/01 09:14:50;;;;;;;7.38;3.40;;;;;;;0.43;95.93;100848.56;5050810;28;20043;-48
2022/04/01 09:17:18;;;;;;;6.68;2.78;;;;;;;0.46;95.09;100848.19;5034354;28;20045;-46
2022/04/01 09:19:49;;;;;;;5.53;2.63;;;;;;;0.51;95.31;100847.59;5036371;28;20045;-50
2022/04/01 09:22:22;;;;;;;5.80;3.00;;;;;;;0.57;95.24;100844.09;5017571;28;20564;-46
2022/04/01 09:24:58;;;;;;;6.80;2.90;;;;;;;0.56;94.34;100843.28;5035257;28;20128;-49
2022/04/01 09:27:53;;;;;;;8.05;3.05;;;;;;;0.55;94.24;100851.50;5035554;28;20103;-46
2022/04/01 09:30:34;;;;;;;6.05;2.75;;;;;;;0.56;93.84;100854.00;5034924;28;20488;-49
2022/04/01 09:33:04;;;;;;;4.38;2.60;;;;;;;0.54;94.67;100856.03;5034795;28;20504;-48
2022/04/01 09:35:33;;;;;;;2.97;2.38;;;;;;;0.56;93.53;100864.72;5035418;28;20045;-48
2022/04/01 09:38:03;;;;;;;5.82;2.75;;;;;;;0.57;93.70;100877.06;5047640;28;20045;-49
2022/04/01 09:40:35;;;;;;;4.90;2.50;;;;;;;0.57;94.14;100865.53;5033873;28;20037;-48
2022/04/01 09:43:07;;;;;;;4.80;2.70;;;;;;;0.61;94.77;100861.44;5034543;28;20051;-45
2022/04/01 09:45:36;;;;;;;5.35;2.78;;;;;;;0.60;93.33;100859.75;5034309;28;20295;-48
2022/04/01 09:48:13;;;;;;;6.38;2.60;;;;;;;0.62;93.72;100866.56;5039613;28;20049;-51
2022/04/01 09:50:44;;;;;;;7.18;2.67;;;;;;;0.61;93.06;100866.78;5053323;28;20045;-45
2022/04/01 09:53:14;;;;;;;5.35;2.63;;;;;;;0.64;93.62;100866.38;5032759;28;20060;-49
2022/04/01 09:55:44;;;;;;;5.53;2.67;;;;;;;0.62;92.84;100871.13;5034467;28;20041;-48
2022/04/01 09:58:14;;;;;;;4.93;2.55;;;;;;;0.67;93.45;100874.00;5037396;28;20052;-50
2022/04/01 10:00:42;;;;;;;6.45;2.72;;;;;;;0.72;92.97;100868.06;5052749;28;20522;-48
2022/04/01 10:03:13;;;;;;;4.20;2.65;;;;;;;0.75;93.76;100873.03;5054485;28;20041;-49
2022/04/01 10:05:41;;;;;;;3.03;2.35;;;;;;;0.78;92.49;100870.75;5053831;28;20056;-45
2022/04/01 10:08:10;;;;;;;6.30;2.63;;;;;;;0.76;91.65;100872.81;5050655;28;20068;-49
2022/04/01 10:10:40;;;;;;;5.72;2.70;;;;;;;0.80;92.65;100873.25;5052520;28;20068;-47
2022/04/01 10:13:18;;;;;;;8.43;2.65;;;;;;;0.83;91.58;100870.97;5052969;28;20045;-49
2022/04/01 10:15:46;;;;;;;4.65;2.63;;;;;;;0.84;92.00;100859.22;5052741;28;20045;-47
2022/04/01 10:18:34;;;;;;;4.35;2.47;;;;;;;0.89;90.99;100869.34;5048186;28;20047;-49
2022/04/01 10:21:03;;;;;;;6.40;2.75;;;;;;;0.92;90.36;100882.34;5052220;28;20041;-48
2022/04/01 10:23:36;;;;;;;5.72;3.13;;;;;;;0.92;89.95;100870.81;5053767;28;20127;-48
2022/04/01 10:26:13;;;;;;;5.90;3.28;;;;;;;0.97;88.60;100873.69;5052564;28;20071;-49
2022/04/01 10:28:45;;;;;;;6.38;3.30;;;;;;;1.02;88.50;100868.53;5042422;28;20447;-48
2022/04/01 10:31:19;;;;;;;5.47;3.20;;;;;;;1.01;89.07;100870.41;5052215;28;20044;-48
2022/04/01 10:33:47;;;;;;;6.65;3.55;;;;;;;1.00;88.85;100881.34;5053678;28;20061;-49
2022/04/01 10:36:26;;;;;;;6.55;3.63;;;;;;;1.01;89.49;100881.13;5053232;28;20134;-47
2022/04/01 10:39:06;;;;;;;5.30;3.25;;;;;;;0.99;88.62;100887.75;5047503;28;20510;-47
2022/04/01 10:41:35;;;;;;;12.05;3.95;;;;;;;1.05;88.25;100881.53;5043499;28;20041;-50
2022/04/01 10:44:03;;;;;;;7.53;3.67;;;;;;;1.08;88.21;100883.81;4348893;28;10000342;-49
2022/04/01 10:46:31;;;;;;;7.53;4.32;;;;;;;1.10;86.39;100889.81;5037123;28;20480;-49
2022/04/01 10:52:12;;;;;;;7.15;3.65;;;;;;;1.04;86.90;100890.63;5030158;28;20053;-48
2022/04/01 10:54:44;;;;;;;8.15;3.70;;;;;;;1.08;88.17;100889.19;5030120;28;20445;-46
2022/04/01 10:57:15;;;;;;;5.97;3.50;;;;;;;1.11;87.59;100894.16;5028780;28;20045;-48
2022/04/01 10:59:47;;;;;;;6.60;3.50;;;;;;;1.16;87.83;100896.22;4995840;28;20132;-48
2022/04/01 11:02:22;;;;;;;9.90;4.18;;;;;;;1.17;88.05;100893.31;5029845;28;20073;-50
2022/04/01 11:04:51;;;;;;;5.20;3.30;;;;;;;1.17;88.50;100901.38;5030035;28;20030;-47
2022/04/01 11:07:22;;;;;;;9.00;3.88;;;;;;;1.16;88.67;100898.91;5028163;28;20148;-48
2022/04/01 11:09:55;;;;;;;10.10;4.10;;;;;;;1.20;88.39;100897.47;5029832;28;20059;-47
2022/04/01 11:12:25;;;;;;;7.15;3.90;;;;;;;1.19;87.74;100902.00;5029660;28;20052;-44
2022/04/01 11:15:19;;;;;;;15.52;4.30;;;;;;;1.19;88.80;100904.69;5029934;28;20045;-48
2022/04/01 11:17:49;;;;;;;7.25;3.97;;;;;;;1.22;88.00;100912.31;5029124;28;20045;-47
2022/04/01 11:20:21;;;;;;;5.45;3.50;;;;;;;1.23;88.32;100913.19;5029517;28;20037;-52
2022/04/01 11:22:59;;;;;;;9.50;3.95;;;;;;;1.18;87.77;100913.78;5029628;28;20050;-47
2022/04/01 11:25:32;;;;;;;7.80;3.92;;;;;;;1.24;87.38;100910.28;5029700;28;20488;-48
2022/04/01 11:28:06;;;;;;;8.90;3.75;;;;;;;1.24;87.53;100926.38;5030580;28;20455;-49
2022/04/01 11:30:36;;;;;;;7.97;4.35;;;;;;;1.27;87.50;100911.72;5032761;28;20041;-53
2022/04/01 11:33:11;;;;;;;10.00;4.50;;;;;;;1.27;86.25;100923.31;5031788;28;20088;-47
2022/04/01 11:35:41;;;;;;;9.18;3.78;;;;;;;1.30;85.91;100923.91;5033051;28;20048;-48
2022/04/01 11:38:15;;;;;;;17.17;4.07;;;;;;;1.33;86.73;100915.47;5032106;28;20124;-47
2022/04/01 11:40:46;;;;;;;8.23;4.30;;;;;;;1.35;85.89;100921.41;5031426;28;20037;-48
2022/04/01 11:43:15;;;;;;;6.72;4.10;;;;;;;1.30;86.24;100923.91;5032572;28;20041;-50
2022/04/01 11:45:45;;;;;;;7.32;3.92;;;;;;;1.30;86.12;100924.75;5033119;28;20046;-48
2022/04/01 11:48:18;;;;;;;7.82;3.90;;;;;;;1.34;86.26;100927.84;5032146;28;20041;-49
2022/04/01 11:50:48;;;;;;;8.95;4.32;;;;;;;1.33;85.23;100915.47;5046513;28;20117;-49
2022/04/01 11:53:36;;;;;;;9.13;3.90;;;;;;;1.35;86.01;100918.75;5052325;28;20071;-49
2022/04/01 11:56:06;;;;;;;8.18;4.22;;;;;;;1.36;85.88;100915.03;5047557;28;20044;-48
2022/04/01 11:58:55;;;;;;;9.05;4.07;;;;;;;1.40;85.74;100916.28;5052192;28;20067;-49
2022/04/01 12:01:25;;;;;;;8.40;4.45;;;;;;;1.47;85.77;100919.81;5052296;28;20040;-47